• Join FlightAware (Why Join?)
  • Login
  • US Flag 
02:25PM EDT


 

Airport Tracker/Info


-or-


 

Live Flight TrackerFlight Track Log ✈ AUB1673 ✈ 14-May-2012 ✈ LRCL / CLJ - EDDM / MUC

Flight Track Log - Related Links

Times and Time Zones

All times are in EDT time to prevent confusion due to time zone crossing. See the AUB1673 flight status page for this flight to view local times or setup timezone preferences in your user account.

Time Position Orientation Groundspeed Altitude Reporting Facility
EDT Latitude Longitude Course Direction KTS MPH feet Rate Location/Type
11:54PM 47.4838 19.5359 282° West  Level Estimated
11:55PM 47.5018 19.4141 282° West  Level Estimated
11:56PM 47.5196 19.2923 282° West  Level Estimated
11:57PM 47.5374 19.1704 282° West  Level Estimated
11:58PM 47.5550 19.0483 282° West  Level Estimated
11:59PM 47.5724 18.9263 282° West  Level Estimated
12:00AM 47.5897 18.8041 282° West  Level Estimated
12:01AM 47.6069 18.6818 282° West  Level Estimated
12:02AM 47.6240 18.5595 282° West  Level Estimated
12:03AM 47.6409 18.4371 282° West  Level Estimated
12:04AM 47.6578 18.3146 281° West  Level Estimated
12:05AM 47.6744 18.1920 281° West  Level Estimated
12:06AM 47.6910 18.0694 281° West  Level Estimated
12:07AM 47.7074 17.9467 281° West  Level Estimated
12:08AM 47.7237 17.8239 281° West  Level Estimated
12:09AM 47.7399 17.7010 281° West  Level Estimated
12:10AM 47.7559 17.5780 281° West  Level Estimated
12:11AM 47.7718 17.4550 281° West  Level Estimated
12:12AM 47.7876 17.3319 281° West  Level Estimated
12:13AM 47.8032 17.2087 281° West  Level Estimated
12:14AM 47.8187 17.0855 281° West  Level Estimated
12:15AM 47.8341 16.9622 280° West  Level Estimated
12:16AM 47.8493 16.8388 280° West  Level Estimated
12:17AM 47.8644 16.7153 280° West  Level Estimated
12:18AM 47.8794 16.5917 280° West  Level Estimated
12:19AM 47.8942 16.4681 280° West  Level Estimated
12:20AM 47.9089 16.3444 280° West  Level Estimated
12:21AM 47.9235 16.2207 280° West  Level Estimated
12:22AM 47.9380 16.0969 280° West  Level Estimated
12:23AM 47.9523 15.9730 280° West  Level Estimated
12:24AM 47.9664 15.8490 280° West  Level Estimated
12:25AM 47.9805 15.7250 280° West  Level Estimated
12:26AM 47.9944 15.6009 279° West  Level Estimated
12:27AM 48.0081 15.4768 279° West  Level Estimated
12:28AM 48.0218 15.3525 279° West  Level Estimated
12:29AM 48.0353 15.2282 279° West  Level Estimated
12:30AM 48.0487 15.1039 279° West  Level Estimated
12:31AM 48.0619 14.9795 279° West  Level Estimated
12:32AM 48.0750 14.8550 279° West  Level Estimated
12:33AM 48.0880 14.7304 279° West  Level Estimated
12:34AM 48.1008 14.6058 279° West  Level Estimated
12:35AM 48.1135 14.4811 279° West  Level Estimated
12:36AM 48.1261 14.3564 279° West  Level Estimated
12:37AM 48.1385 14.2316 278° West  Level Estimated
12:38AM 48.1508 14.1067 278° West  Level Estimated
12:39AM 48.1630 13.9818 278° West  Level Estimated
12:40AM 48.1750 13.8569 278° West  Level Estimated
12:41AM 48.1869 13.7318 278° West  Level Estimated
12:42AM 48.1986 13.6067 278° West  Level Estimated
12:43AM 48.2102 13.4816 278° West  Level Estimated
12:44AM 48.2217 13.3564 278° West  Level Estimated
12:45AM 48.2331 13.2311 278° West  Level Estimated
12:46AM 48.2443 13.1058 278° West  Level Estimated
12:47AM 48.2553 12.9804 278° West  Level Estimated
12:48AM 48.2663 12.8550 277° West  Level Estimated
12:49AM 48.2771 12.7296 277° West  Level Estimated
12:50AM 48.2877 12.6040 277° West  Level Estimated
12:51AM 48.2983 12.4784 277° West  Level Estimated
12:52AM 48.3087 12.3528 277° West  Level Estimated
12:53AM 48.3189 12.2271 277° West  Level Estimated
12:54AM 48.3290 12.1014 277° West  Level Estimated
12:55AM 48.3390 11.9756 277° West  Level Estimated
12:56AM 48.3489 11.8498 277° West  Level Estimated
12:57AM 48.3586 11.7239 97° East  Level Estimated
12:58AM 48.3489 11.8498 277° West  Level Estimated
12:59AM 48.3586 11.7239 97° East  Level Estimated
01:00AM 48.3489 11.8498 277° West  Level Estimated
01:01AM 48.3586 11.7239 97° East  Level Estimated
01:02AM 48.3489 11.8498 277° West  Level Estimated
01:03AM 48.3586 11.7239 97° East  Level Estimated
01:04AM 48.3489 11.8498 277° West  Level Estimated
01:05AM 48.3586 11.7239 97° East  Level Estimated
01:06AM 48.3489 11.8498 277° West  Level Estimated
01:07AM 48.3586 11.7239 97° East  Level Estimated
01:08AM 48.3489 11.8498 97° East  Level Estimated